EGNH

Blackpool Airport

Airport
ICAO code
EGNH
IATA Code
BLK
Summary
ICAO Region
EUR
ICAO Territory
Location

St Annes-on-the-Sea, Lancashire, England

Serving
Blackpool
Elevation
34 ft
Coordinates
53° 46' 17" N , 3° 1' 42" W
KCC
Metar
Observation
EGNH 251120Z 29017KT 9999 FEW010 BKN041 10/08 Q1002
Station
Blackpool Airport
Date/Time
2023-03-25 11:20:00
Wind direction
290°
Wind speed
17 kts
Lowest cloud amount
few clouds
Temperature
10°C
Dew point
8°C
Humidity
87%
QNH
1002 hPa
Weather condition
n/a

Privately owned airport near Blackpool, Lancashire, England.

Climatology

Temperate Marine climate/Oceanic climate (Köppen climate classification Cfb).

Runways

Designator Length Width Surface Rops
7/25 799 30 ASP Yes/Yes
13/31 1077 23 ASP Yes/Yes
10/28 1869 46 ASP Yes/Yes

Airport map

Aerial View

SKYbrary Partners:

Safety knowledge contributed by: